Time;durP1;ratioP1;P1;durP2;ratioP2;P2;SDS_P1;SDS_P2;PMS_P1;PMS_P2;Temp;Humidity;BMP_temperature;BMP_pressure;BME280_temperature;BME280_humidity;BME280_pressure;Samples;Min_cycle;Max_cycle;Signal;HPM_P1;HPM_P2
2022/07/15 00:01:18;;;;;;;2.70;0.68;;;;;;;;;;5014399;28;20083;-76
2022/07/15 00:03:44;;;;;;;1.13;0.50;;;;;;;;;;5016362;28;20501;-77
2022/07/15 00:06:10;;;;;;;2.40;0.43;;;;;;;;;;5015140;28;20126;-77
2022/07/15 00:08:36;;;;;;;1.17;0.60;;;;;;;;;;5014720;28;20054;-78
2022/07/15 00:11:03;;;;;;;3.28;0.70;;;;;;;;;;5015402;28;20128;-79
2022/07/15 00:13:30;;;;;;;1.23;0.60;;;;;;;;;;5014928;28;20026;-78
2022/07/15 00:15:57;;;;;;;1.70;0.60;;;;;;;;;;5015545;28;20406;-76
2022/07/15 00:18:23;;;;;;;0.90;0.40;;;;;;;;;;5014792;28;20072;-78
2022/07/15 00:20:49;;;;;;;1.80;0.60;;;;;;;;;;5016009;28;20026;-78
2022/07/15 00:23:15;;;;;;;1.30;0.60;;;;;;;;;;5015824;28;20029;-78
2022/07/15 00:25:41;;;;;;;1.20;0.43;;;;;;;;;;5015189;28;20076;-79
2022/07/15 00:28:09;;;;;;;1.73;0.60;;;;;;;;;;5014575;28;20025;-78
2022/07/15 00:30:38;;;;;;;1.13;0.50;;;;;;;;;;5016127;28;20054;-78
2022/07/15 00:33:04;;;;;;;1.45;0.60;;;;;;;;;;5014696;28;20430;-79
2022/07/15 00:35:31;;;;;;;1.40;0.60;;;;;;;;;;5015474;28;20403;-78
2022/07/15 00:37:57;;;;;;;1.25;0.60;;;;;;;;;;5014417;28;20026;-79
2022/07/15 00:40:23;;;;;;;2.28;0.90;;;;;;;;;;5015004;28;20030;-78
2022/07/15 00:42:49;;;;;;;1.63;0.90;;;;;;;;;;5014211;28;20034;-79
2022/07/15 00:45:17;;;;;;;1.20;0.70;;;;;;;;;;5014192;28;20022;-78
2022/07/15 00:47:47;;;;;;;2.10;0.70;;;;;;;;;;5014126;28;20022;-78
2022/07/15 00:50:15;;;;;;;1.60;0.75;;;;;;;;;;5015093;28;20033;-78
2022/07/15 00:52:43;;;;;;;1.40;0.80;;;;;;;;;;5014312;28;20041;-79
2022/07/15 00:55:11;;;;;;;1.98;0.80;;;;;;;;;;5013960;28;20048;-78
2022/07/15 00:57:38;;;;;;;1.45;0.70;;;;;;;;;;5015485;28;20445;-79
2022/07/15 01:00:05;;;;;;;1.55;0.80;;;;;;;;;;5014274;28;20026;-78
2022/07/15 01:02:32;;;;;;;2.10;0.80;;;;;;;;;;5014040;28;20025;-79
2022/07/15 01:05:00;;;;;;;1.52;0.80;;;;;;;;;;5015743;28;20498;-78
2022/07/15 01:07:26;;;;;;;1.70;0.70;;;;;;;;;;5014874;28;20033;-78
2022/07/15 01:09:52;;;;;;;1.77;0.80;;;;;;;;;;5014974;28;20081;-80
2022/07/15 01:12:18;;;;;;;1.55;0.85;;;;;;;;;;5014413;28;20022;-78
2022/07/15 01:14:45;;;;;;;4.40;1.05;;;;;;;;;;5013888;28;20038;-79
2022/07/15 01:17:11;;;;;;;2.72;1.00;;;;;;;;;;5013821;28;20033;-79
2022/07/15 01:19:39;;;;;;;11.40;1.50;;;;;;;;;;5014864;28;20453;-79
2022/07/15 01:22:07;;;;;;;4.22;1.10;;;;;;;;;;5013769;28;20079;-79
2022/07/15 01:24:33;;;;;;;4.60;1.10;;;;;;;;;;5013624;28;20121;-79
2022/07/15 01:27:00;;;;;;;3.97;1.50;;;;;;;;;;5015254;28;20065;-79
2022/07/15 01:29:27;;;;;;;2.78;1.50;;;;;;;;;;5013481;28;20435;-79
2022/07/15 01:31:53;;;;;;;2.22;1.38;;;;;;;;;;5014655;28;20033;-77
2022/07/15 01:34:19;;;;;;;3.55;1.70;;;;;;;;;;5014623;28;20034;-78
2022/07/15 01:36:45;;;;;;;3.05;1.50;;;;;;;;;;5013383;28;20033;-78
2022/07/15 01:39:12;;;;;;;3.45;1.73;;;;;;;;;;5013181;28;20034;-79
2022/07/15 01:41:38;;;;;;;2.33;1.60;;;;;;;;;;5013312;28;20533;-78
2022/07/15 01:44:04;;;;;;;3.33;1.70;;;;;;;;;;5013229;28;20030;-78
2022/07/15 01:46:30;;;;;;;4.25;1.80;;;;;;;;;;5013152;28;20064;-78
2022/07/15 01:51:41;;;;;;;3.47;1.73;;;;;;;;;;5015214;28;20041;-79
2022/07/15 01:54:07;;;;;;;4.53;1.90;;;;;;;;;;5014846;28;20045;-78
2022/07/15 01:56:36;;;;;;;3.97;1.70;;;;;;;;;;5013011;28;20458;-78
2022/07/15 01:59:02;;;;;;;2.72;1.80;;;;;;;;;;5012804;28;20026;-78
2022/07/15 02:01:28;;;;;;;4.20;1.67;;;;;;;;;;5012846;28;20087;-78
2022/07/15 02:03:54;;;;;;;2.50;1.50;;;;;;;;;;5014005;28;20041;-77
2022/07/15 02:06:20;;;;;;;3.22;1.90;;;;;;;;;;5015238;28;20574;-79
2022/07/15 02:08:47;;;;;;;2.70;1.73;;;;;;;;;;5012588;28;20069;-78
2022/07/15 02:11:13;;;;;;;2.45;1.60;;;;;;;;;;5012577;28;20030;-77
2022/07/15 02:13:39;;;;;;;2.65;1.63;;;;;;;;;;5012642;28;20025;-78
2022/07/15 02:16:05;;;;;;;5.90;2.05;;;;;;;;;;5012793;28;20092;-78
2022/07/15 02:18:31;;;;;;;3.67;2.40;;;;;;;;;;5012625;28;20022;-78
2022/07/15 02:20:57;;;;;;;3.58;2.13;;;;;;;;;;5012657;28;20080;-77
2022/07/15 02:23:24;;;;;;;4.10;2.28;;;;;;;;;;5013014;28;20022;-77
2022/07/15 02:25:50;;;;;;;2.92;2.05;;;;;;;;;;5014301;28;20450;-78
2022/07/15 02:28:16;;;;;;;4.00;2.58;;;;;;;;;;5014170;28;20022;-78
2022/07/15 02:30:43;;;;;;;3.67;2.30;;;;;;;;;;5014353;28;20118;-78
2022/07/15 02:33:10;;;;;;;6.57;2.70;;;;;;;;;;5013168;28;20026;-78
2022/07/15 02:35:37;;;;;;;2.92;2.10;;;;;;;;;;5012527;28;20037;-77
2022/07/15 02:38:03;;;;;;;4.50;2.53;;;;;;;;;;5012403;28;20433;-78
2022/07/15 02:40:30;;;;;;;2.90;2.33;;;;;;;;;;5012630;28;20394;-78
2022/07/15 02:42:57;;;;;;;3.63;2.80;;;;;;;;;;5012292;28;20041;-78
2022/07/15 02:45:28;;;;;;;3.13;2.25;;;;;;;;;;5014323;28;20081;-79
2022/07/15 02:47:54;;;;;;;4.22;2.42;;;;;;;;;;5014717;28;20053;-78
2022/07/15 02:50:21;;;;;;;3.85;2.85;;;;;;;;;;5012231;28;20034;-79
2022/07/15 02:52:48;;;;;;;3.33;2.40;;;;;;;;;;5012418;28;20104;-78
2022/07/15 02:55:14;;;;;;;3.15;2.72;;;;;;;;;;5013947;28;20038;-79
2022/07/15 02:57:41;;;;;;;4.50;2.80;;;;;;;;;;5013243;28;20026;-78
2022/07/15 03:00:09;;;;;;;4.30;2.90;;;;;;;;;;5013623;28;20371;-78
2022/07/15 03:02:35;;;;;;;4.25;2.92;;;;;;;;;;5012223;28;20030;-78
2022/07/15 03:05:01;;;;;;;3.88;2.88;;;;;;;;;;5012358;28;20124;-78
2022/07/15 03:07:28;;;;;;;4.70;3.20;;;;;;;;;;5012289;28;20026;-79
2022/07/15 03:09:55;;;;;;;4.03;3.42;;;;;;;;;;5012612;28;20141;-78
2022/07/15 03:12:21;;;;;;;4.43;3.30;;;;;;;;;;5013462;28;20433;-79
2022/07/15 03:14:47;;;;;;;4.85;3.50;;;;;;;;;;5011900;28;20439;-79
2022/07/15 03:17:14;;;;;;;4.85;3.67;;;;;;;;;;5012197;28;20026;-78
2022/07/15 03:19:40;;;;;;;5.70;3.67;;;;;;;;;;5012230;28;20037;-79
2022/07/15 03:22:06;;;;;;;4.13;3.42;;;;;;;;;;5014005;28;20529;-79
2022/07/15 03:24:32;;;;;;;6.75;3.47;;;;;;;;;;5013976;28;20068;-78
2022/07/15 03:26:59;;;;;;;4.13;3.17;;;;;;;;;;5012321;28;20459;-79
2022/07/15 03:29:26;;;;;;;4.80;3.90;;;;;;;;;;5012010;28;20030;-79
2022/07/15 03:31:52;;;;;;;6.05;4.10;;;;;;;;;;5013487;28;20022;-79
2022/07/15 03:34:19;;;;;;;8.50;4.88;;;;;;;;;;5012020;28;20030;-78
2022/07/15 03:36:45;;;;;;;5.72;4.25;;;;;;;;;;5017098;28;20022;-78
2022/07/15 03:39:11;;;;;;;4.80;4.30;;;;;;;;;;5015368;28;20065;-79
2022/07/15 03:41:37;;;;;;;7.07;4.63;;;;;;;;;;5015351;28;20497;-79
2022/07/15 03:44:03;;;;;;;5.32;4.60;;;;;;;;;;5016511;28;20462;-78
2022/07/15 03:46:31;;;;;;;5.20;4.53;;;;;;;;;;5015300;28;20059;-79
2022/07/15 03:48:57;;;;;;;6.55;4.80;;;;;;;;;;5017120;28;20028;-78
2022/07/15 03:51:33;;;;;;;6.10;4.95;;;;;;;;;;5015721;28;20121;-78
2022/07/15 03:54:00;;;;;;;6.00;4.93;;;;;;;;;;5015798;28;20033;-78
2022/07/15 03:56:27;;;;;;;7.13;4.75;;;;;;;;;;5015276;28;20037;-78
2022/07/15 03:58:53;;;;;;;6.47;4.88;;;;;;;;;;5015806;28;20489;-78
2022/07/15 04:01:20;;;;;;;5.55;5.05;;;;;;;;;;5015646;28;20030;-79
2022/07/15 04:03:48;;;;;;;6.03;5.35;;;;;;;;;;5015197;28;20018;-78
2022/07/15 04:06:14;;;;;;;7.60;5.38;;;;;;;;;;5014967;28;20057;-79
2022/07/15 04:08:41;;;;;;;7.38;5.68;;;;;;;;;;5014852;28;20149;-79
2022/07/15 04:11:07;;;;;;;8.10;5.90;;;;;;;;;;5016142;28;20062;-79
2022/07/15 04:13:37;;;;;;;10.13;6.22;;;;;;;;;;5014713;28;20079;-80
2022/07/15 04:16:04;;;;;;;7.88;6.10;;;;;;;;;;5014618;28;20114;-78
2022/07/15 04:18:30;;;;;;;7.20;5.90;;;;;;;;;;5014592;28;20026;-79
2022/07/15 04:20:57;;;;;;;7.13;6.25;;;;;;;;;;5014668;28;20123;-78
2022/07/15 04:23:24;;;;;;;8.27;6.20;;;;;;;;;;5016382;28;20037;-78
2022/07/15 04:25:53;;;;;;;8.60;7.18;;;;;;;;;;5015499;28;20028;-78
2022/07/15 04:28:23;;;;;;;9.82;7.25;;;;;;;;;;5015324;28;20471;-79
2022/07/15 04:30:50;;;;;;;8.07;6.82;;;;;;;;;;5014481;28;20076;-78
2022/07/15 04:33:17;;;;;;;8.23;6.22;;;;;;;;;;5014469;28;20080;-79
2022/07/15 04:35:43;;;;;;;8.60;6.90;;;;;;;;;;5014571;28;20034;-78
2022/07/15 04:38:10;;;;;;;10.23;7.20;;;;;;;;;;5014570;28;20509;-78
2022/07/15 04:40:37;;;;;;;7.40;6.60;;;;;;;;;;5014467;28;20121;-78
2022/07/15 04:43:03;;;;;;;8.25;6.45;;;;;;;;;;5014210;28;20030;-78
2022/07/15 04:45:29;;;;;;;8.50;6.55;;;;;;;;;;5016881;28;20037;-78
2022/07/15 04:47:59;;;;;;;11.10;6.63;;;;;;;;;;5013868;28;20022;-78
2022/07/15 04:53:09;;;;;;;8.85;7.43;;;;;;;;;;5015371;28;20056;-78
2022/07/15 04:55:36;;;;;;;8.88;7.00;;;;;;;;;;5014082;28;20037;-79
2022/07/15 04:58:02;;;;;;;8.18;6.78;;;;;;;;;;5015821;28;20053;-79
2022/07/15 05:00:28;;;;;;;7.63;6.40;;;;;;;;;;5014133;28;20030;-78
2022/07/15 05:02:55;;;;;;;8.18;6.80;;;;;;;;;;5014550;28;20026;-78
2022/07/15 05:05:21;;;;;;;12.10;7.05;;;;;;;;;;5014270;28;20037;-79
2022/07/15 05:07:47;;;;;;;8.95;6.50;;;;;;;;;;5013867;28;20421;-78
2022/07/15 05:10:13;;;;;;;6.70;6.00;;;;;;;;;;5014204;28;20041;-78
2022/07/15 05:12:40;;;;;;;8.73;6.13;;;;;;;;;;5015350;28;20149;-78
2022/07/15 05:15:06;;;;;;;8.02;6.47;;;;;;;;;;5014633;28;20080;-77
2022/07/15 05:17:33;;;;;;;8.32;5.40;;;;;;;;;;5013920;28;20033;-77
2022/07/15 05:20:00;;;;;;;6.40;5.50;;;;;;;;;;5013822;28;20097;-79
2022/07/15 05:22:26;;;;;;;6.75;5.32;;;;;;;;;;5015090;28;20466;-78
2022/07/15 05:24:53;;;;;;;8.25;5.43;;;;;;;;;;5009036;28;20451;-77
2022/07/15 05:27:19;;;;;;;9.52;5.43;;;;;;;;;;4992561;28;20022;-78
2022/07/15 05:29:45;;;;;;;6.82;5.30;;;;;;;;;;5023035;28;20034;-77
2022/07/15 05:32:11;;;;;;;6.65;5.28;;;;;;;;;;4991057;28;20479;-76
2022/07/15 05:34:37;;;;;;;7.95;5.50;;;;;;;;;;4993390;28;20112;-78
2022/07/15 05:37:03;;;;;;;6.03;5.05;;;;;;;;;;4994571;28;20048;-77
2022/07/15 05:39:30;;;;;;;6.85;5.63;;;;;;;;;;4994173;28;20040;-79
2022/07/15 05:41:56;;;;;;;6.15;5.18;;;;;;;;;;4994906;28;20073;-75
2022/07/15 05:44:23;;;;;;;9.90;5.50;;;;;;;;;;4994042;28;20030;-78
2022/07/15 05:46:50;;;;;;;6.22;5.03;;;;;;;;;;4993510;28;20026;-76
2022/07/15 05:49:16;;;;;;;6.72;5.45;;;;;;;;;;4994593;28;20030;-75
2022/07/15 05:51:43;;;;;;;7.55;5.20;;;;;;;;;;4993184;28;20026;-76
2022/07/15 05:54:09;;;;;;;6.75;5.00;;;;;;;;;;4993241;28;20117;-77
2022/07/15 05:56:35;;;;;;;8.13;4.95;;;;;;;;;;4993476;28;20035;-76
2022/07/15 05:59:01;;;;;;;6.60;5.15;;;;;;;;;;4992702;28;20145;-79
2022/07/15 06:01:27;;;;;;;8.00;5.57;;;;;;;;;;4993264;28;20030;-78
2022/07/15 06:03:53;;;;;;;8.77;5.03;;;;;;;;;;4993466;28;20506;-77
2022/07/15 06:06:19;;;;;;;7.57;4.95;;;;;;;;;;4993473;28;20117;-83
2022/07/15 06:08:45;;;;;;;7.03;4.70;;;;;;;;;;4993338;28;20085;-76
2022/07/15 06:11:12;;;;;;;8.43;5.07;;;;;;;;;;4993912;28;20030;-77
2022/07/15 06:13:38;;;;;;;7.22;4.68;;;;;;;;;;4993508;28;20026;-78
2022/07/15 06:16:05;;;;;;;6.03;4.75;;;;;;;;;;4995048;28;20110;-78
2022/07/15 06:18:31;;;;;;;6.55;4.47;;;;;;;;;;4993248;28;20062;-77
2022/07/15 06:20:57;;;;;;;6.20;4.25;;;;;;;;;;4992839;28;20102;-76
2022/07/15 06:23:24;;;;;;;7.60;4.45;;;;;;;;;;4993063;28;20018;-77
2022/07/15 06:25:50;;;;;;;7.32;4.40;;;;;;;;;;4992826;28;20031;-78
2022/07/15 06:28:16;;;;;;;6.47;4.22;;;;;;;;;;4993342;28;20027;-77
2022/07/15 06:30:42;;;;;;;6.40;4.30;;;;;;;;;;4992763;28;20046;-78
2022/07/15 06:33:08;;;;;;;8.30;4.30;;;;;;;;;;4993584;28;20368;-82
2022/07/15 06:35:34;;;;;;;7.13;4.40;;;;;;;;;;4992949;28;20037;-79
2022/07/15 06:38:01;;;;;;;9.18;4.50;;;;;;;;;;4992615;28;20023;-82
2022/07/15 06:40:27;;;;;;;7.20;4.28;;;;;;;;;;4993152;28;20076;-78
2022/07/15 06:42:53;;;;;;;6.05;3.85;;;;;;;;;;4992721;28;20023;-76
2022/07/15 06:45:19;;;;;;;6.60;3.83;;;;;;;;;;4992814;28;20023;-75
2022/07/15 06:47:45;;;;;;;6.28;3.80;;;;;;;;;;4993350;28;20431;-77
2022/07/15 06:50:12;;;;;;;6.28;3.60;;;;;;;;;;4994912;28;20014;-82
2022/07/15 06:52:38;;;;;;;5.03;3.67;;;;;;;;;;4993652;28;20031;-80
2022/07/15 06:55:04;;;;;;;5.63;3.80;;;;;;;;;;4992523;28;20047;-75
2022/07/15 06:57:30;;;;;;;7.57;3.15;;;;;;;;;;4992712;28;20027;-76
2022/07/15 06:59:56;;;;;;;4.68;3.22;;;;;;;;;;4992983;28;20047;-77
2022/07/15 07:02:23;;;;;;;6.88;2.90;;;;;;;;;;4993503;28;20034;-78
2022/07/15 07:04:49;;;;;;;7.22;2.90;;;;;;;;;;4993968;28;20031;-81
2022/07/15 07:07:15;;;;;;;5.22;2.75;;;;;;;;;;4992679;28;20390;-77
2022/07/15 07:09:41;;;;;;;4.53;3.05;;;;;;;;;;4993797;28;20112;-80
2022/07/15 07:12:08;;;;;;;7.15;2.63;;;;;;;;;;5004259;28;20022;-79
2022/07/15 07:14:34;;;;;;;7.38;2.78;;;;;;;;;;5016105;28;20038;-76
2022/07/15 07:17:00;;;;;;;5.10;2.60;;;;;;;;;;5015728;28;20386;-76
2022/07/15 07:19:26;;;;;;;3.33;2.20;;;;;;;;;;5016356;28;20049;-76
2022/07/15 07:21:52;;;;;;;3.97;2.47;;;;;;;;;;4996691;28;20054;-77
2022/07/15 07:24:18;;;;;;;6.25;2.35;;;;;;;;;;4995626;28;20065;-77
2022/07/15 07:26:44;;;;;;;4.68;2.17;;;;;;;;;;4996043;28;20034;-76
2022/07/15 07:29:12;;;;;;;3.97;2.15;;;;;;;;;;4995938;28;20499;-75
2022/07/15 07:31:38;;;;;;;3.80;2.35;;;;;;;;;;4997189;28;20594;-75
2022/07/15 07:34:04;;;;;;;5.40;2.30;;;;;;;;;;4996895;28;20094;-76
2022/07/15 07:36:30;;;;;;;9.25;2.20;;;;;;;;;;4997625;28;20109;-75
2022/07/15 07:38:56;;;;;;;4.78;2.15;;;;;;;;;;4995863;28;20041;-76
2022/07/15 07:41:22;;;;;;;11.63;2.55;;;;;;;;;;4995947;28;20026;-76
2022/07/15 07:43:49;;;;;;;4.13;2.20;;;;;;;;;;4995977;28;20037;-77
2022/07/15 07:46:16;;;;;;;5.15;2.00;;;;;;;;;;4996024;28;20368;-77
2022/07/15 07:48:43;;;;;;;4.90;2.50;;;;;;;;;;4995484;28;20483;-79
2022/07/15 07:51:09;;;;;;;5.97;2.10;;;;;;;;;;4995790;28;20057;-77
2022/07/15 07:53:35;;;;;;;5.30;2.08;;;;;;;;;;4995396;28;20443;-78
2022/07/15 07:56:01;;;;;;;4.20;1.85;;;;;;;;;;4995370;28;20410;-77
2022/07/15 07:58:27;;;;;;;5.60;1.90;;;;;;;;;;4996817;28;20046;-80
2022/07/15 08:00:55;;;;;;;3.70;1.50;;;;;;;;;;4995592;28;20053;-78
2022/07/15 08:03:21;;;;;;;4.63;1.63;;;;;;;;;;4995253;28;20030;-79
2022/07/15 08:05:47;;;;;;;4.63;1.75;;;;;;;;;;4995311;28;20030;-80
2022/07/15 08:08:14;;;;;;;4.82;1.67;;;;;;;;;;4995257;28;20034;-80
2022/07/15 08:10:41;;;;;;;5.10;1.70;;;;;;;;;;4995291;28;20065;-80
2022/07/15 08:13:07;;;;;;;4.13;1.65;;;;;;;;;;4996034;28;20030;-79
2022/07/15 08:15:34;;;;;;;3.92;1.40;;;;;;;;;;4995465;28;20074;-79
2022/07/15 08:18:01;;;;;;;3.88;1.40;;;;;;;;;;4995139;28;20164;-81
2022/07/15 08:20:28;;;;;;;3.60;1.60;;;;;;;;;;4995069;28;20105;-80
2022/07/15 08:22:58;;;;;;;4.13;1.67;;;;;;;;;;4993889;28;20088;-81
2022/07/15 08:25:28;;;;;;;4.93;1.60;;;;;;;;;;4994699;28;20077;-80
2022/07/15 08:27:54;;;;;;;3.05;1.30;;;;;;;;;;4994686;28;20027;-79
2022/07/15 08:30:21;;;;;;;5.63;1.38;;;;;;;;;;4997249;28;20586;-79
2022/07/15 08:32:47;;;;;;;4.28;1.38;;;;;;;;;;4998088;28;20026;-79
2022/07/15 08:35:13;;;;;;;4.25;1.73;;;;;;;;;;4994723;28;20045;-79
2022/07/15 08:37:39;;;;;;;2.95;1.15;;;;;;;;;;4996395;28;20019;-78
2022/07/15 08:40:09;;;;;;;4.35;1.35;;;;;;;;;;4996453;28;20041;-79
2022/07/15 08:42:35;;;;;;;4.00;1.25;;;;;;;;;;4994579;28;20018;-78
2022/07/15 08:45:01;;;;;;;2.75;1.02;;;;;;;;;;4995170;28;20034;-83
2022/07/15 08:47:31;;;;;;;3.88;1.20;;;;;;;;;;4996746;28;20026;-81
2022/07/15 08:49:58;;;;;;;5.07;1.45;;;;;;;;;;4995527;28;20026;-80
2022/07/15 08:52:25;;;;;;;3.92;1.20;;;;;;;;;;4995724;28;20058;-80
2022/07/15 08:54:51;;;;;;;4.35;1.33;;;;;;;;;;4994331;28;20038;-77
2022/07/15 08:57:17;;;;;;;5.20;1.50;;;;;;;;;;4994478;28;20039;-77
2022/07/15 08:59:46;;;;;;;6.35;1.73;;;;;;;;;;4995338;28;20033;-79
2022/07/15 09:02:18;;;;;;;3.50;1.40;;;;;;;;;;4994636;28;20042;-81
2022/07/15 09:05:03;;;;;;;5.25;1.40;;;;;;;;;;4993618;28;20026;-78
2022/07/15 09:07:30;;;;;;;5.40;1.50;;;;;;;;;;4995819;28;20036;-80
2022/07/15 09:09:56;;;;;;;4.65;1.33;;;;;;;;;;4993839;28;20062;-82
2022/07/15 09:12:23;;;;;;;3.75;1.23;;;;;;;;;;4994850;28;20036;-85
2022/07/15 09:14:49;;;;;;;7.07;1.42;;;;;;;;;;4994255;28;20081;-79
2022/07/15 09:17:15;;;;;;;4.43;1.75;;;;;;;;;;4994218;28;20140;-80
2022/07/15 09:19:57;;;;;;;6.38;1.40;;;;;;;;;;4992917;28;20030;-78
2022/07/15 09:22:23;;;;;;;13.80;1.30;;;;;;;;;;4981413;28;20030;-80
2022/07/15 09:25:09;;;;;;;6.15;1.25;;;;;;;;;;4993490;28;20380;-80
2022/07/15 09:27:37;;;;;;;3.72;0.98;;;;;;;;;;4993710;28;20027;-80
2022/07/15 09:36:02;;;;;;;2.72;1.00;;;;;;;;;;4994892;28;20148;-79
2022/07/15 09:38:34;;;;;;;4.38;1.20;;;;;;;;;;4994272;28;20372;-79
2022/07/15 09:41:01;;;;;;;4.38;0.90;;;;;;;;;;4994129;28;20034;-79
2022/07/15 09:43:27;;;;;;;2.53;0.77;;;;;;;;;;4993819;28;20467;-79
2022/07/15 09:46:00;;;;;;;3.22;0.80;;;;;;;;;;4993272;28;20026;-79
2022/07/15 09:48:30;;;;;;;6.18;1.08;;;;;;;;;;4995211;28;20034;-80
2022/07/15 09:51:00;;;;;;;3.50;0.88;;;;;;;;;;4992605;28;20420;-79
2022/07/15 09:53:26;;;;;;;3.58;1.10;;;;;;;;;;4994341;28;20034;-79
2022/07/15 09:55:53;;;;;;;4.43;1.00;;;;;;;;;;4993025;28;20038;-78
2022/07/15 09:58:20;;;;;;;4.75;1.00;;;;;;;;;;4993009;28;20033;-75
2022/07/15 10:00:47;;;;;;;2.22;0.65;;;;;;;;;;4993438;28;20026;-78
2022/07/15 10:03:14;;;;;;;4.25;0.90;;;;;;;;;;4995074;28;20386;-79
2022/07/15 10:05:40;;;;;;;4.97;0.90;;;;;;;;;;4993171;28;20026;-79
2022/07/15 10:08:09;;;;;;;5.25;0.70;;;;;;;;;;4989849;28;20034;-79
2022/07/15 10:10:39;;;;;;;3.05;0.88;;;;;;;;;;4993405;28;20034;-78
2022/07/15 10:13:25;;;;;;;3.35;0.80;;;;;;;;;;4996912;28;20026;-77
2022/07/15 10:15:51;;;;;;;1.80;0.68;;;;;;;;;;5014625;28;20037;-76
2022/07/15 10:18:21;;;;;;;3.58;0.90;;;;;;;;;;5012953;28;20475;-79
2022/07/15 10:21:17;;;;;;;3.17;1.20;;;;;;;;;;5001800;28;20041;-79
2022/07/15 10:23:52;;;;;;;4.10;1.20;;;;;;;;;;4941999;28;20095;-78
2022/07/15 10:26:40;;;;;;;5.30;0.95;;;;;;;;;;4994988;28;20026;-79
2022/07/15 10:29:07;;;;;;;2.60;1.00;;;;;;;;;;4992754;28;20081;-79
2022/07/15 10:31:34;;;;;;;2.80;0.80;;;;;;;;;;4992752;28;20026;-79
2022/07/15 10:34:03;;;;;;;1.63;0.65;;;;;;;;;;4992436;28;20123;-78
2022/07/15 10:36:41;;;;;;;2.10;0.90;;;;;;;;;;4992550;28;20038;-80
2022/07/15 10:39:11;;;;;;;13.30;1.40;;;;;;;;;;4992393;28;20356;-78
2022/07/15 10:41:53;;;;;;;3.67;1.20;;;;;;;;;;4993073;28;20023;-77
2022/07/15 10:44:20;;;;;;;3.35;0.98;;;;;;;;;;4993033;28;20390;-81
2022/07/15 10:46:49;;;;;;;4.15;1.23;;;;;;;;;;4997528;28;20393;-81
2022/07/15 10:49:15;;;;;;;3.88;1.00;;;;;;;;;;4998038;28;20031;-78
2022/07/15 10:51:41;;;;;;;4.47;1.10;;;;;;;;;;4997417;28;20498;-76
2022/07/15 10:54:30;;;;;;;4.72;1.10;;;;;;;;;;4997575;28;20046;-87
2022/07/15 10:56:56;;;;;;;3.17;1.13;;;;;;;;;;4961032;28;20038;-76
2022/07/15 10:59:26;;;;;;;3.92;1.20;;;;;;;;;;4996853;28;20057;-87
2022/07/15 11:01:58;;;;;;;7.53;1.38;;;;;;;;;;4997196;28;20466;-89
2022/07/15 11:04:26;;;;;;;3.45;1.35;;;;;;;;;;4997117;28;20038;-80
2022/07/15 11:07:09;;;;;;;6.30;1.58;;;;;;;;;;4998547;28;20073;-83
2022/07/15 11:09:44;;;;;;;4.22;1.15;;;;;;;;;;4997082;28;20074;-79
2022/07/15 11:12:13;;;;;;;3.28;1.45;;;;;;;;;;4998386;28;20387;-91
2022/07/15 11:14:59;;;;;;;4.13;1.00;;;;;;;;;;4997965;28;20033;-86
2022/07/15 11:17:25;;;;;;;4.93;1.50;;;;;;;;;;4997190;28;20475;-77
2022/07/15 11:19:53;;;;;;;4.07;1.13;;;;;;;;;;4996733;28;20068;-83
2022/07/15 11:22:20;;;;;;;4.13;1.30;;;;;;;;;;4996169;28;20030;-84
2022/07/15 11:24:46;;;;;;;5.18;1.20;;;;;;;;;;4996752;28;20504;-84
2022/07/15 11:27:13;;;;;;;8.23;1.80;;;;;;;;;;4997389;28;20034;-81
2022/07/15 11:30:07;;;;;;;4.00;1.30;;;;;;;;;;4997154;28;20364;-83
2022/07/15 11:32:34;;;;;;;4.53;1.50;;;;;;;;;;4993686;28;20071;-82
2022/07/15 11:35:04;;;;;;;4.35;1.80;;;;;;;;;;4977467;28;20074;-86
2022/07/15 11:37:35;;;;;;;3.72;1.55;;;;;;;;;;4977763;28;20034;-84
2022/07/15 11:46:07;;;;;;;5.13;1.55;;;;;;;;;;4978506;28;20130;-80
2022/07/15 11:48:49;;;;;;;3.22;1.40;;;;;;;;;;4976274;28;20038;-83
2022/07/15 11:51:15;;;;;;;7.80;2.00;;;;;;;;;;4976207;28;20027;-81
2022/07/15 11:53:46;;;;;;;5.38;1.60;;;;;;;;;;4976250;28;20173;-80
2022/07/15 11:56:13;;;;;;;9.32;2.80;;;;;;;;;;4976145;28;20543;-83
2022/07/15 11:58:42;;;;;;;4.82;1.30;;;;;;;;;;4976174;28;20025;-85
2022/07/15 12:01:10;;;;;;;3.95;1.33;;;;;;;;;;4977484;28;20035;-81
2022/07/15 12:03:40;;;;;;;3.40;1.50;;;;;;;;;;4975984;28;20033;-81
2022/07/15 12:06:27;;;;;;;11.15;1.83;;;;;;;;;;4977482;28;20476;-81
2022/07/15 12:09:08;;;;;;;3.40;1.50;;;;;;;;;;4976204;28;20050;-79
2022/07/15 12:11:41;;;;;;;6.60;1.70;;;;;;;;;;4977041;28;20113;-89
2022/07/15 12:14:23;;;;;;;2.95;1.40;;;;;;;;;;4977550;28;20464;-87
2022/07/15 12:16:53;;;;;;;7.13;1.50;;;;;;;;;;4976164;28;20050;-78
2022/07/15 12:20:01;;;;;;;2.17;1.33;;;;;;;;;;4976381;28;20023;-83
2022/07/15 12:22:28;;;;;;;3.13;1.40;;;;;;;;;;4919533;28;20118;-78
2022/07/15 12:24:54;;;;;;;2.13;1.30;;;;;;;;;;4976540;28;20025;-76
2022/07/15 12:27:31;;;;;;;30.70;2.78;;;;;;;;;;4976435;28;20082;-77
2022/07/15 12:30:05;;;;;;;5.53;1.70;;;;;;;;;;4975708;28;20023;-89
2022/07/15 12:32:31;;;;;;;11.07;1.50;;;;;;;;;;4975585;28;20037;-80
2022/07/15 12:35:02;;;;;;;4.63;1.35;;;;;;;;;;4976364;28;20031;-83
2022/07/15 12:37:34;;;;;;;5.63;1.50;;;;;;;;;;4994994;28;20026;-77
2022/07/15 12:40:00;;;;;;;17.58;2.03;;;;;;;;;;4995627;28;20399;-84
2022/07/15 12:42:29;;;;;;;2.60;1.35;;;;;;;;;;4994046;28;20030;-77
2022/07/15 12:45:14;;;;;;;8.05;1.55;;;;;;;;;;4994880;28;20423;-76
2022/07/15 12:47:58;;;;;;;4.75;1.77;;;;;;;;;;4993928;28;20031;-76
2022/07/15 12:50:25;;;;;;;23.02;2.08;;;;;;;;;;4995243;28;20022;-76
2022/07/15 12:52:53;;;;;;;6.50;1.83;;;;;;;;;;4994913;28;20038;-82
2022/07/15 12:55:20;;;;;;;4.18;1.75;;;;;;;;;;4995242;28;20468;-80
2022/07/15 12:57:47;;;;;;;14.85;2.00;;;;;;;;;;4994608;28;20053;-76
2022/07/15 13:00:13;;;;;;;5.60;1.90;;;;;;;;;;4994482;28;20061;-77
2022/07/15 13:03:15;;;;;;;7.03;1.70;;;;;;;;;;4994446;28;20432;-76
2022/07/15 13:05:45;;;;;;;6.13;1.65;;;;;;;;;;4939278;29;20071;-77
2022/07/15 13:08:12;;;;;;;3.58;1.27;;;;;;;;;;4983689;28;20418;-75
2022/07/15 13:10:40;;;;;;;7.55;1.92;;;;;;;;;;4994513;28;20121;-82
2022/07/15 13:13:07;;;;;;;1.92;1.42;;;;;;;;;;4995356;28;20022;-77
2022/07/15 13:15:36;;;;;;;6.18;1.60;;;;;;;;;;4996260;28;20426;-78
2022/07/15 13:18:02;;;;;;;5.63;1.75;;;;;;;;;;4994538;28;20022;-76
2022/07/15 13:20:29;;;;;;;5.95;1.58;;;;;;;;;;4994313;28;20035;-83
2022/07/15 13:22:56;;;;;;;5.78;1.60;;;;;;;;;;4993871;28;20387;-79
2022/07/15 13:25:23;;;;;;;2.70;1.30;;;;;;;;;;4993653;28;20050;-80
2022/07/15 13:27:49;;;;;;;2.92;1.63;;;;;;;;;;4995181;28;20023;-76
2022/07/15 13:30:16;;;;;;;2.95;1.42;;;;;;;;;;4994443;28;20486;-78
2022/07/15 13:32:43;;;;;;;4.32;1.50;;;;;;;;;;4995014;28;20026;-77
2022/07/15 13:35:10;;;;;;;9.15;1.73;;;;;;;;;;4995268;28;20105;-75
2022/07/15 13:37:36;;;;;;;7.38;1.50;;;;;;;;;;4995018;28;20030;-76
2022/07/15 13:40:04;;;;;;;4.82;1.70;;;;;;;;;;4994574;28;20022;-75
2022/07/15 13:42:30;;;;;;;5.90;1.67;;;;;;;;;;4994932;28;20085;-85
2022/07/15 13:44:56;;;;;;;239.30;13.45;;;;;;;;;;4996716;28;20037;-81
2022/07/15 13:47:23;;;;;;;49.83;3.85;;;;;;;;;;4997551;28;20027;-80
2022/07/15 13:52:34;;;;;;;3.67;1.75;;;;;;;;;;4994821;28;20029;-78
2022/07/15 13:55:00;;;;;;;3.58;1.50;;;;;;;;;;4993965;28;20043;-77
2022/07/15 13:57:27;;;;;;;6.28;1.77;;;;;;;;;;4993366;28;20032;-78
2022/07/15 13:59:53;;;;;;;4.32;2.20;;;;;;;;;;4993479;28;20038;-81
2022/07/15 14:02:19;;;;;;;4.05;1.73;;;;;;;;;;4993426;28;20022;-78
2022/07/15 14:04:45;;;;;;;2.63;1.45;;;;;;;;;;4993393;28;20076;-77
2022/07/15 14:07:12;;;;;;;4.15;1.58;;;;;;;;;;4993322;28;20034;-81
2022/07/15 14:09:38;;;;;;;8.98;1.60;;;;;;;;;;4993130;28;20046;-77
2022/07/15 14:12:04;;;;;;;13.50;2.85;;;;;;;;;;4993071;28;20073;-82
2022/07/15 14:14:30;;;;;;;3.28;1.50;;;;;;;;;;4993768;28;20018;-78
2022/07/15 14:16:56;;;;;;;3.13;1.52;;;;;;;;;;4993666;28;20553;-76
2022/07/15 14:19:23;;;;;;;4.38;1.52;;;;;;;;;;4994375;28;20031;-79
2022/07/15 14:21:49;;;;;;;3.00;1.95;;;;;;;;;;4995789;28;20023;-79
2022/07/15 14:24:15;;;;;;;5.15;1.63;;;;;;;;;;4995522;28;20033;-75
2022/07/15 14:26:42;;;;;;;3.08;1.60;;;;;;;;;;4995331;28;20482;-77
2022/07/15 14:29:09;;;;;;;3.17;1.63;;;;;;;;;;4993421;28;20027;-83
2022/07/15 14:31:35;;;;;;;4.28;1.80;;;;;;;;;;4993290;28;20069;-89
2022/07/15 14:34:01;;;;;;;3.88;1.63;;;;;;;;;;4993325;28;20067;-76
2022/07/15 14:36:27;;;;;;;4.63;1.80;;;;;;;;;;4994785;28;20092;-77
2022/07/15 14:39:00;;;;;;;2.25;1.42;;;;;;;;;;4998971;28;20045;-80
2022/07/15 14:41:26;;;;;;;3.55;1.50;;;;;;;;;;4993790;28;20414;-77
2022/07/15 14:43:52;;;;;;;3.75;1.52;;;;;;;;;;4994763;28;20490;-78
2022/07/15 14:46:18;;;;;;;4.82;1.67;;;;;;;;;;4992142;28;20030;-81
2022/07/15 14:48:44;;;;;;;5.75;1.60;;;;;;;;;;4992986;28;20030;-76
2022/07/15 14:51:10;;;;;;;2.80;1.60;;;;;;;;;;4993279;28;20505;-84
2022/07/15 14:53:36;;;;;;;3.78;1.70;;;;;;;;;;4995226;28;20080;-78
2022/07/15 14:56:02;;;;;;;3.47;1.60;;;;;;;;;;4993053;28;20128;-79
2022/07/15 14:58:29;;;;;;;2.53;1.50;;;;;;;;;;4993089;28;20387;-76
2022/07/15 15:00:55;;;;;;;2.92;1.50;;;;;;;;;;4993156;28;20019;-82
2022/07/15 15:03:22;;;;;;;2.97;1.70;;;;;;;;;;4992159;28;20054;-76
2022/07/15 15:05:49;;;;;;;4.57;1.60;;;;;;;;;;4992981;28;20106;-78
2022/07/15 15:08:15;;;;;;;3.58;1.38;;;;;;;;;;4992382;28;20058;-87